Time;durP1;ratioP1;P1;durP2;ratioP2;P2;SDS_P1;SDS_P2;PMS_P1;PMS_P2;Temp;Humidity;BMP_temperature;BMP_pressure;BME280_temperature;BME280_humidity;BME280_pressure;Samples;Min_cycle;Max_cycle;Signal;HPM_P1;HPM_P2
2024/01/24 00:01:57;;;;;;;12.10;11.33;;;7.00;1.00;;;;;;5011772;28;20654;-55
2024/01/24 00:04:24;;;;;;;11.70;10.90;;;7.00;1.00;;;;;;5019370;28;20664;-56
2024/01/24 00:06:50;;;;;;;11.63;11.03;;;7.00;1.00;;;;;;5015434;28;20179;-56
2024/01/24 00:09:16;;;;;;;11.30;10.70;;;7.10;1.00;;;;;;5002264;28;20449;-51
2024/01/24 00:11:41;;;;;;;11.60;10.90;;;7.10;1.00;;;;;;5001924;28;20213;-39
2024/01/24 00:14:07;;;;;;;12.10;11.40;;;7.10;1.00;;;;;;5010923;28;20943;-40
2024/01/24 00:16:33;;;;;;;11.80;11.00;;;7.20;1.00;;;;;;5007165;28;20218;-41
2024/01/24 00:18:58;;;;;;;12.10;11.43;;;7.20;1.00;;;;;;5009116;28;21038;-40
2024/01/24 00:21:24;;;;;;;11.83;11.10;;;7.30;1.00;;;;;;5022494;28;20197;-40
2024/01/24 00:23:50;;;;;;;12.43;11.63;;;7.30;1.00;;;;;;5022054;28;20548;-40
2024/01/24 00:26:15;;;;;;;12.10;11.40;;;7.40;1.00;;;;;;5022401;28;20558;-38
2024/01/24 00:28:41;;;;;;;12.20;11.60;;;7.40;1.00;;;;;;5021259;28;20186;-39
2024/01/24 00:31:06;;;;;;;12.80;11.90;;;7.40;1.00;;;;;;5022620;28;20213;-39
2024/01/24 00:33:33;;;;;;;12.77;11.97;;;7.40;1.00;;;;;;5022334;28;20274;-38
2024/01/24 00:35:58;;;;;;;12.80;12.10;;;7.40;3.70;;;;;;5022460;28;20179;-42
2024/01/24 00:38:24;;;;;;;12.90;12.03;;;7.40;87.90;;;;;;5021424;28;21234;-38
2024/01/24 00:40:50;;;;;;;12.30;11.60;;;7.40;99.90;;;;;;5021242;28;20294;-38
2024/01/24 00:43:15;;;;;;;12.87;12.13;;;7.40;99.90;;;;;;5020882;28;20532;-39
2024/01/24 00:45:41;;;;;;;12.80;12.00;;;7.40;99.90;;;;;;5021943;28;21194;-41
2024/01/24 00:48:07;;;;;;;12.30;11.70;;;7.40;1.00;;;;;;5021806;28;20676;-42
2024/01/24 00:50:34;;;;;;;12.37;11.77;;;7.40;99.90;;;;;;5022387;28;20202;-38
2024/01/24 00:53:03;;;;;;;13.07;12.37;;;7.40;1.00;;;;;;5021408;28;20464;-39
2024/01/24 00:55:30;;;;;;;13.10;12.30;;;7.40;1.00;;;;;;5021386;28;20421;-40
2024/01/24 00:57:56;;;;;;;13.33;12.63;;;7.30;99.90;;;;;;5020997;28;20888;-40
2024/01/24 01:00:22;;;;;;;14.30;13.60;;;7.30;99.90;;;;;;5021501;28;20431;-42
2024/01/24 01:02:48;;;;;;;16.27;15.40;;;7.30;99.90;;;;;;5020390;28;20201;-42
2024/01/24 01:05:13;;;;;;;15.70;15.00;;;7.20;15.60;;;;;;5021126;28;20433;-40
2024/01/24 01:07:39;;;;;;;15.23;14.50;;;7.20;99.90;;;;;;5020574;28;20663;-39
2024/01/24 01:10:07;;;;;;;14.90;14.20;;;7.10;1.00;;;;;;5021511;28;20236;-53
2024/01/24 01:12:33;;;;;;;15.30;14.40;;;7.00;1.00;;;;;;5021073;28;20214;-57
2024/01/24 01:14:58;;;;;;;15.10;14.30;;;7.00;1.00;;;;;;5022022;28;20409;-52
2024/01/24 01:17:24;;;;;;;14.57;13.87;;;7.00;1.00;;;;;;5020657;28;20236;-53
2024/01/24 01:19:50;;;;;;;14.67;13.97;;;6.90;1.00;;;;;;5020976;28;20301;-55
2024/01/24 01:22:15;;;;;;;14.50;13.70;;;6.90;1.00;;;;;;5021153;28;20195;-56
2024/01/24 01:24:41;;;;;;;14.13;13.50;;;7.00;99.90;;;;;;5020922;28;20789;-52
2024/01/24 01:27:08;;;;;;;13.80;13.20;;;7.00;99.90;;;;;;5020603;28;20681;-51
2024/01/24 01:29:33;;;;;;;13.70;13.10;;;7.10;7.30;;;;;;5020962;28;20707;-58
2024/01/24 01:31:59;;;;;;;14.00;13.40;;;7.10;1.00;;;;;;5020506;28;20552;-57
2024/01/24 01:34:25;;;;;;;13.80;13.20;;;7.10;5.90;;;;;;5020901;28;20183;-53
2024/01/24 01:36:50;;;;;;;13.80;13.10;;;7.10;10.30;;;;;;5021243;28;20210;-55
2024/01/24 01:39:16;;;;;;;14.30;13.60;;;7.20;8.20;;;;;;5020877;28;20324;-54
2024/01/24 01:41:45;;;;;;;14.57;13.87;;;7.10;20.90;;;;;;5020313;28;20194;-52
2024/01/24 01:44:11;;;;;;;14.73;14.03;;;7.10;38.00;;;;;;5019913;28;20727;-55
2024/01/24 01:46:38;;;;;;;14.60;13.90;;;7.10;52.30;;;;;;5021063;28;20421;-56
2024/01/24 01:49:04;;;;;;;14.60;13.80;;;7.10;52.20;;;;;;5020780;28;20754;-56
2024/01/24 01:51:30;;;;;;;14.57;13.70;;;7.10;75.10;;;;;;5020798;28;20905;-58
2024/01/24 01:53:57;;;;;;;14.57;13.77;;;7.00;99.10;;;;;;5020064;28;20425;-58
2024/01/24 01:56:24;;;;;;;14.27;13.57;;;7.00;99.90;;;;;;5020480;28;20828;-56
2024/01/24 01:58:50;;;;;;;14.80;14.03;;;6.90;99.90;;;;;;5020725;28;20425;-55
2024/01/24 02:01:17;;;;;;;15.00;14.20;;;6.80;99.90;;;;;;5019432;28;20451;-49
2024/01/24 02:03:43;;;;;;;14.80;13.80;;;6.80;99.90;;;;;;5020557;28;20720;-50
2024/01/24 02:06:09;;;;;;;14.50;13.80;;;6.80;99.90;;;;;;5020564;28;20463;-56
2024/01/24 02:08:36;;;;;;;15.00;13.90;;;6.70;99.90;;;;;;5019769;28;20805;-44
2024/01/24 02:11:02;;;;;;;14.90;14.00;;;6.70;99.90;;;;;;5019725;28;20691;-50
2024/01/24 02:13:31;;;;;;;14.40;13.70;;;6.70;99.90;;;;;;5019849;28;20456;-55
2024/01/24 02:16:00;;;;;;;15.27;14.37;;;6.70;99.90;;;;;;5020870;28;20911;-56
2024/01/24 02:18:26;;;;;;;14.83;13.93;;;6.70;99.90;;;;;;5020073;28;20409;-50
2024/01/24 02:20:52;;;;;;;14.10;13.40;;;6.60;99.90;;;;;;5000355;28;21000;-55
2024/01/24 02:23:19;;;;;;;14.30;13.60;;;6.60;99.90;;;;;;5020409;28;20269;-56
2024/01/24 02:25:44;;;;;;;14.10;13.40;;;6.60;99.90;;;;;;5020524;28;20333;-57
2024/01/24 02:28:10;;;;;;;14.20;13.50;;;6.60;99.90;;;;;;5020369;28;20856;-53
2024/01/24 02:30:35;;;;;;;14.00;13.30;;;6.60;99.90;;;;;;5019105;28;20668;-54
2024/01/24 02:33:02;;;;;;;13.87;13.17;;;6.60;99.90;;;;;;5019945;28;20538;-57
2024/01/24 02:35:28;;;;;;;13.80;13.07;;;6.60;99.90;;;;;;5019275;28;20205;-53
2024/01/24 02:37:54;;;;;;;13.73;13.03;;;6.70;99.90;;;;;;5019742;28;20417;-56
2024/01/24 02:40:19;;;;;;;13.32;12.63;;;6.70;99.90;;;;;;5018923;28;20441;-42
2024/01/24 02:42:45;;;;;;;13.40;12.80;;;6.70;99.90;;;;;;5019732;28;20613;-49
2024/01/24 02:45:11;;;;;;;13.30;12.70;;;6.80;99.90;;;;;;5019664;28;20256;-58
2024/01/24 02:47:37;;;;;;;13.00;12.40;;;7.00;99.90;;;;;;5019743;28;20233;-50
2024/01/24 02:50:04;;;;;;;13.20;12.60;;;7.20;99.90;;;;;;5019312;28;20194;-55
2024/01/24 02:52:30;;;;;;;13.40;12.80;;;7.30;99.90;;;;;;5017786;28;20469;-55
2024/01/24 02:54:56;;;;;;;13.20;12.60;;;7.40;99.90;;;;;;5019657;28;20478;-58
2024/01/24 02:57:21;;;;;;;13.30;12.70;;;7.50;99.90;;;;;;5019259;28;20425;-54
2024/01/24 02:59:47;;;;;;;13.40;12.80;;;7.60;99.90;;;;;;5019280;28;20194;-57
2024/01/24 03:02:12;;;;;;;13.17;12.63;;;7.60;99.90;;;;;;5018229;28;20178;-55
2024/01/24 03:04:38;;;;;;;13.63;13.03;;;7.60;99.90;;;;;;5019064;28;20274;-38
2024/01/24 03:07:04;;;;;;;13.90;13.00;;;7.50;99.90;;;;;;5019646;28;20659;-39
2024/01/24 03:09:30;;;;;;;13.90;13.20;;;7.70;99.90;;;;;;5019047;28;20278;-38
2024/01/24 03:11:55;;;;;;;13.40;12.80;;;7.90;99.90;;;;;;5018641;28;20469;-37
2024/01/24 03:14:21;;;;;;;13.77;13.17;;;8.00;99.90;;;;;;5019195;28;20709;-38
2024/01/24 03:16:47;;;;;;;13.77;13.17;;;8.10;99.90;;;;;;5019372;28;20289;-38
2024/01/24 03:19:13;;;;;;;14.40;13.70;;;8.30;99.90;;;;;;5001273;28;20226;-38
2024/01/24 03:21:40;;;;;;;14.13;13.53;;;8.30;99.90;;;;;;5017980;28;20512;-38
2024/01/24 03:24:06;;;;;;;13.87;13.27;;;8.50;99.90;;;;;;5019257;28;20449;-38
2024/01/24 03:26:31;;;;;;;13.90;13.30;;;8.50;99.90;;;;;;5001116;28;20424;-39
2024/01/24 03:28:57;;;;;;;14.20;13.40;;;8.60;99.90;;;;;;5019051;28;20958;-48
2024/01/24 03:31:23;;;;;;;13.73;13.13;;;8.60;99.90;;;;;;5018389;28;20271;-53
2024/01/24 03:33:48;;;;;;;14.43;13.73;;;8.70;99.90;;;;;;5018897;28;20191;-57
2024/01/24 03:36:14;;;;;;;13.40;12.80;;;8.70;99.90;;;;;;5018747;28;20244;-52
2024/01/24 03:38:40;;;;;;;13.77;13.17;;;8.80;99.90;;;;;;5018949;28;20182;-57
2024/01/24 03:41:05;;;;;;;13.90;13.10;;;8.90;99.90;;;;;;5018341;28;20182;-44
2024/01/24 03:43:31;;;;;;;13.07;12.33;;;9.10;91.30;;;;;;5018964;28;20279;-58
2024/01/24 03:45:57;;;;;;;12.87;12.27;;;9.40;68.90;;;;;;5018961;28;20660;-54
2024/01/24 03:48:23;;;;;;;12.60;12.00;;;9.50;64.20;;;;;;5019134;28;20433;-55
2024/01/24 03:50:48;;;;;;;13.10;12.20;;;9.70;54.10;;;;;;5018824;28;20203;-56
2024/01/24 03:53:14;;;;;;;13.10;12.30;;;9.70;55.80;;;;;;5018532;28;20268;-54
2024/01/24 03:55:40;;;;;;;12.17;11.57;;;9.70;58.50;;;;;;5018979;28;20647;-51
2024/01/24 03:58:06;;;;;;;12.40;11.80;;;9.80;45.30;;;;;;5018895;28;20480;-52
2024/01/24 04:00:31;;;;;;;12.20;11.70;;;9.80;45.60;;;;;;5018758;28;20508;-58
2024/01/24 04:02:57;;;;;;;12.00;11.40;;;9.80;53.50;;;;;;5016952;28;20586;-55
2024/01/24 04:05:23;;;;;;;12.47;11.87;;;9.80;53.00;;;;;;5019092;28;20244;-55
2024/01/24 04:07:49;;;;;;;11.00;10.50;;;9.90;45.40;;;;;;5018362;28;20282;-54
2024/01/24 04:10:15;;;;;;;12.20;11.60;;;10.00;50.20;;;;;;5018473;28;20281;-55
2024/01/24 04:12:41;;;;;;;11.63;11.13;;;10.00;36.10;;;;;;5018165;28;20198;-56
2024/01/24 04:15:07;;;;;;;11.80;11.20;;;10.10;29.10;;;;;;5018751;28;20425;-57
2024/01/24 04:17:33;;;;;;;12.00;11.50;;;10.20;34.50;;;;;;5017699;28;20350;-56
2024/01/24 04:19:58;;;;;;;11.93;11.23;;;10.20;26.90;;;;;;5018027;28;20575;-51
2024/01/24 04:22:24;;;;;;;11.70;11.20;;;10.20;22.30;;;;;;5017549;28;20222;-56
2024/01/24 04:24:50;;;;;;;12.07;11.47;;;10.20;30.60;;;;;;5017950;28;20275;-57
2024/01/24 04:27:15;;;;;;;11.87;11.20;;;10.30;13.90;;;;;;5018839;28;20747;-54
2024/01/24 04:29:44;;;;;;;11.63;11.13;;;10.40;16.70;;;;;;5017564;28;20653;-50
2024/01/24 04:32:10;;;;;;;12.00;11.40;;;10.50;21.40;;;;;;5020244;28;20207;-55
2024/01/24 04:34:36;;;;;;;11.80;11.30;;;10.40;26.50;;;;;;5021758;28;20486;-53
2024/01/24 04:37:02;;;;;;;13.50;12.63;;;10.50;17.90;;;;;;5021459;28;20477;-54
2024/01/24 04:39:27;;;;;;;11.37;10.97;;;10.50;22.50;;;;;;5021619;28;20463;-50
2024/01/24 04:41:53;;;;;;;11.80;11.30;;;10.60;9.00;;;;;;5021996;28;20425;-48
2024/01/24 04:44:19;;;;;;;11.50;11.10;;;10.80;1.00;;;;;;5022382;28;20218;-54
2024/01/24 04:46:45;;;;;;;11.80;11.30;;;10.90;1.00;;;;;;5021578;28;20245;-47
2024/01/24 04:49:11;;;;;;;11.60;11.10;;;11.00;1.00;;;;;;5021853;28;20504;-55
2024/01/24 04:51:37;;;;;;;11.83;11.30;;;11.10;1.00;;;;;;5020895;28;20589;-52
2024/01/24 04:54:03;;;;;;;11.57;11.07;;;11.10;1.00;;;;;;5021772;28;20409;-54
2024/01/24 04:56:29;;;;;;;12.30;11.50;;;11.20;1.00;;;;;;5021437;28;20421;-55
2024/01/24 04:58:55;;;;;;;11.50;11.00;;;11.20;1.00;;;;;;5003841;28;20429;-53
2024/01/24 05:01:20;;;;;;;11.60;11.10;;;11.20;1.00;;;;;;5020241;28;20281;-54
2024/01/24 05:03:46;;;;;;;11.50;11.00;;;11.20;1.00;;;;;;5021971;28;20194;-47
2024/01/24 05:06:12;;;;;;;11.33;10.83;;;11.20;1.00;;;;;;5021670;28;20209;-55
2024/01/24 05:08:39;;;;;;;11.50;11.00;;;11.20;1.00;;;;;;5021643;28;20238;-54
2024/01/24 05:11:05;;;;;;;11.80;11.20;;;11.20;1.00;;;;;;5020447;28;20979;-52
2024/01/24 05:13:31;;;;;;;10.37;9.87;;;11.20;1.00;;;;;;5020960;28;20506;-53
2024/01/24 05:15:58;;;;;;;11.60;11.10;;;11.20;1.00;;;;;;5022156;28;20413;-56
2024/01/24 05:18:23;;;;;;;10.30;9.90;;;11.30;1.00;;;;;;5005105;28;20417;-51
2024/01/24 05:20:49;;;;;;;10.57;10.07;;;11.30;1.00;;;;;;5020697;28;20487;-54
2024/01/24 05:23:15;;;;;;;10.47;9.97;;;11.30;1.00;;;;;;5021313;28;20601;-57
2024/01/24 05:25:42;;;;;;;9.70;9.30;;;11.30;1.00;;;;;;5022130;28;20421;-52
2024/01/24 05:28:11;;;;;;;11.37;10.77;;;11.30;1.00;;;;;;5022676;28;20693;-48
2024/01/24 05:30:37;;;;;;;9.83;9.43;;;11.40;1.00;;;;;;5021113;28;20436;-52
2024/01/24 05:33:03;;;;;;;11.60;11.10;;;11.30;1.00;;;;;;5021080;28;20460;-53
2024/01/24 05:35:28;;;;;;;10.80;10.30;;;11.40;1.00;;;;;;5003402;28;20195;-56
2024/01/24 05:37:54;;;;;;;10.50;10.00;;;11.40;1.00;;;;;;5021789;28;20221;-55
2024/01/24 05:40:19;;;;;;;11.37;10.87;;;11.50;1.00;;;;;;5003619;28;20206;-54
2024/01/24 05:42:45;;;;;;;10.83;10.33;;;11.50;1.00;;;;;;5021441;28;20293;-54
2024/01/24 05:45:11;;;;;;;10.37;9.97;;;11.60;1.00;;;;;;5020789;28;20182;-52
2024/01/24 05:47:37;;;;;;;10.67;10.17;;;11.60;1.00;;;;;;5020938;28;20189;-56
2024/01/24 05:50:03;;;;;;;10.10;9.60;;;11.60;1.00;;;;;;5019946;28;20937;-53
2024/01/24 05:52:29;;;;;;;9.67;9.27;;;11.70;1.00;;;;;;5020649;28;21170;-53
2024/01/24 05:54:54;;;;;;;10.30;9.90;;;11.80;1.00;;;;;;5021024;28;20425;-54
2024/01/24 05:57:21;;;;;;;10.53;10.13;;;11.90;1.00;;;;;;5020931;28;20626;-54
2024/01/24 05:59:47;;;;;;;10.60;10.20;;;11.90;1.00;;;;;;5020213;28;20652;-53
2024/01/24 06:02:13;;;;;;;10.57;10.17;;;12.00;1.00;;;;;;5019318;28;20441;-57
2024/01/24 06:04:39;;;;;;;10.60;10.20;;;12.00;1.00;;;;;;5019016;28;20532;-50
2024/01/24 06:07:06;;;;;;;10.97;10.47;;;12.00;4.20;;;;;;5018545;28;20179;-52
2024/01/24 06:09:31;;;;;;;11.13;10.63;;;12.00;99.90;;;;;;5020003;28;20503;-43
2024/01/24 06:11:58;;;;;;;11.40;10.90;;;12.00;99.90;;;;;;5020373;28;20798;-54
2024/01/24 06:14:24;;;;;;;10.73;10.23;;;12.10;1.00;;;;;;5019658;28;20190;-56
2024/01/24 06:16:49;;;;;;;10.60;10.10;;;12.20;1.00;;;;;;5019713;28;20440;-56
2024/01/24 06:19:15;;;;;;;10.93;10.50;;;12.20;1.00;;;;;;5020197;28;20308;-45
2024/01/24 06:21:41;;;;;;;10.13;9.70;;;12.30;95.40;;;;;;5020436;28;20193;-52
2024/01/24 06:24:07;;;;;;;10.20;9.80;;;12.20;1.00;;;;;;5015269;28;20910;-55
2024/01/24 06:26:32;;;;;;;10.03;9.63;;;12.30;1.00;;;;;;5014152;28;20201;-50
2024/01/24 06:28:58;;;;;;;11.10;10.60;;;12.40;99.90;;;;;;5015547;28;20187;-52
2024/01/24 06:31:24;;;;;;;10.07;9.67;;;12.40;1.00;;;;;;5010463;28;20714;-54
2024/01/24 06:33:50;;;;;;;9.93;9.53;;;12.50;1.00;;;;;;5014977;28;20206;-50
2024/01/24 06:36:16;;;;;;;10.90;10.40;;;12.50;1.00;;;;;;5009163;28;20178;-46
2024/01/24 06:38:42;;;;;;;10.20;9.80;;;12.60;1.00;;;;;;5004197;28;20444;-55
2024/01/24 06:41:07;;;;;;;10.57;10.10;;;12.70;1.00;;;;;;5007544;28;20256;-54
2024/01/24 06:43:35;;;;;;;10.63;10.23;;;12.80;1.00;;;;;;5006378;28;20217;-43
2024/01/24 06:46:02;;;;;;;10.43;10.03;;;12.80;1.00;;;;;;5019547;28;20178;-53
2024/01/24 06:48:28;;;;;;;10.10;9.70;;;12.80;1.00;;;;;;5010098;28;20433;-55
2024/01/24 06:50:54;;;;;;;11.10;10.50;;;12.80;99.90;;;;;;5019221;28;20600;-42
2024/01/24 06:53:20;;;;;;;10.47;10.07;;;12.70;1.00;;;;;;5012294;28;20705;-57
2024/01/24 06:55:46;;;;;;;10.93;10.53;;;12.80;1.00;;;;;;5012073;28;20419;-56
2024/01/24 06:58:12;;;;;;;10.30;9.90;;;12.90;99.90;;;;;;5008542;28;20437;-56
2024/01/24 07:00:37;;;;;;;9.83;9.43;;;12.90;99.90;;;;;;5000532;28;20281;-57
2024/01/24 07:03:03;;;;;;;10.20;9.80;;;12.90;99.90;;;;;;5013428;28;20206;-57
2024/01/24 07:05:29;;;;;;;10.17;9.77;;;12.90;99.90;;;;;;5018703;28;20190;-50
2024/01/24 07:07:56;;;;;;;11.03;10.33;;;12.90;99.90;;;;;;5017783;28;20424;-54
2024/01/24 07:10:22;;;;;;;9.40;9.00;;;12.90;99.90;;;;;;5000379;28;20196;-54
2024/01/24 07:12:48;;;;;;;11.17;10.40;;;12.90;99.90;;;;;;4987138;28;20481;-53
2024/01/24 07:15:17;;;;;;;11.10;10.70;;;12.90;99.90;;;;;;5006340;28;20446;-50
2024/01/24 07:17:43;;;;;;;11.10;10.70;;;12.90;99.90;;;;;;5017460;28;20175;-57
2024/01/24 07:20:09;;;;;;;10.47;10.07;;;13.00;99.90;;;;;;5009887;28;20476;-55
2024/01/24 07:22:34;;;;;;;10.70;10.10;;;12.90;99.90;;;;;;5016750;28;20441;-54
2024/01/24 07:25:00;;;;;;;11.60;11.00;;;13.00;99.90;;;;;;5012465;28;20953;-57
2024/01/24 07:27:26;;;;;;;10.20;9.70;;;13.00;99.90;;;;;;4998627;28;20264;-56
2024/01/24 07:29:51;;;;;;;10.23;9.83;;;13.00;99.90;;;;;;5007339;28;20924;-55
2024/01/24 07:32:17;;;;;;;11.50;11.00;;;13.10;1.00;;;;;;5008271;28;20246;-57
2024/01/24 07:34:43;;;;;;;10.70;10.20;;;13.20;1.00;;;;;;5009520;28;20179;-57
2024/01/24 07:37:09;;;;;;;10.53;10.13;;;13.20;1.00;;;;;;5016354;28;20261;-51
2024/01/24 07:39:34;;;;;;;10.43;10.03;;;13.20;1.00;;;;;;5006463;28;20523;-46
2024/01/24 07:42:00;;;;;;;10.60;10.20;;;13.20;1.00;;;;;;5005313;28;20541;-53
2024/01/24 07:44:26;;;;;;;11.03;10.63;;;13.30;1.00;;;;;;5011056;28;20649;-56
2024/01/24 07:46:52;;;;;;;11.23;10.73;;;13.30;1.00;;;;;;5015524;28;20260;-54
2024/01/24 07:49:18;;;;;;;11.03;10.63;;;13.40;1.00;;;;;;5013250;28;20471;-49
2024/01/24 07:51:46;;;;;;;10.13;9.73;;;13.40;35.80;;;;;;5006573;28;20492;-46
2024/01/24 07:54:13;;;;;;;11.10;10.60;;;13.30;99.90;;;;;;5002616;28;20326;-57
2024/01/24 07:56:39;;;;;;;10.10;9.70;;;13.20;99.90;;;;;;5005848;28;20518;-39
2024/01/24 07:59:06;;;;;;;10.70;10.30;;;13.20;99.90;;;;;;5012469;28;20433;-41
2024/01/24 08:01:32;;;;;;;10.17;9.77;;;13.30;1.00;;;;;;5015507;28;20778;-39
2024/01/24 08:03:58;;;;;;;10.50;10.10;;;13.40;99.90;;;;;;5012434;28;20932;-39
2024/01/24 08:06:24;;;;;;;10.57;10.17;;;13.50;99.90;;;;;;5009561;28;20182;-39
2024/01/24 08:08:50;;;;;;;10.90;10.40;;;13.50;99.90;;;;;;5019584;28;20932;-45
2024/01/24 08:11:16;;;;;;;10.20;9.80;;;13.50;99.90;;;;;;5019402;28;21046;-39
2024/01/24 08:13:43;;;;;;;10.80;10.30;;;13.50;99.90;;;;;;4996838;28;20465;-38
2024/01/24 08:16:09;;;;;;;9.70;9.30;;;13.50;99.90;;;;;;5019200;28;20421;-39
2024/01/24 08:18:35;;;;;;;9.83;9.43;;;13.50;99.90;;;;;;5022352;28;20424;-39
2024/01/24 08:21:01;;;;;;;10.80;10.40;;;13.40;1.00;;;;;;5019320;28;20224;-39
2024/01/24 08:23:26;;;;;;;10.63;10.23;;;13.40;1.00;;;;;;5020586;28;20266;-39
2024/01/24 08:25:52;;;;;;;10.90;10.40;;;13.50;1.00;;;;;;5020002;28;20447;-39
2024/01/24 08:28:18;;;;;;;10.60;10.20;;;13.50;1.00;;;;;;5022248;28;20810;-39
2024/01/24 08:30:43;;;;;;;10.80;10.40;;;13.60;1.00;;;;;;5010827;28;20841;-43
2024/01/24 08:33:09;;;;;;;10.63;10.23;;;13.60;1.00;;;;;;5018459;28;20253;-40
2024/01/24 08:35:36;;;;;;;10.63;10.23;;;13.60;1.00;;;;;;5009304;28;20214;-39
2024/01/24 08:38:02;;;;;;;11.47;10.87;;;14.00;99.90;;;;;;5021494;28;20174;-39
2024/01/24 08:40:28;;;;;;;10.30;9.80;;;14.00;99.90;;;;;;5009952;28;20446;-39
2024/01/24 08:42:54;;;;;;;10.57;10.17;;;13.90;99.90;;;;;;5012583;28;21038;-40
2024/01/24 08:45:20;;;;;;;10.43;10.03;;;13.90;1.00;;;;;;5015116;28;20726;-40
2024/01/24 08:47:45;;;;;;;10.17;9.77;;;14.20;99.90;;;;;;5022023;28;20902;-40
2024/01/24 08:50:11;;;;;;;11.30;10.80;;;14.40;85.70;;;;;;5015578;28;20505;-39
2024/01/24 08:52:37;;;;;;;10.53;10.13;;;14.40;1.00;;;;;;5013937;28;20810;-40
2024/01/24 08:55:03;;;;;;;10.87;10.47;;;14.50;1.00;;;;;;5009283;28;20182;-42
2024/01/24 08:57:28;;;;;;;11.10;10.60;;;14.40;1.00;;;;;;5021490;28;20186;-37
2024/01/24 08:59:54;;;;;;;10.00;9.60;;;14.20;1.00;;;;;;5019253;28;20216;-38
2024/01/24 09:02:19;;;;;;;10.70;10.30;;;14.40;1.00;;;;;;5020968;28;20667;-37
2024/01/24 09:04:46;;;;;;;10.70;10.30;;;14.70;1.00;;;;;;5014838;28;20629;-37
2024/01/24 09:07:14;;;;;;;11.00;10.50;;;15.10;99.90;;;;;;5021726;28;20182;-37
2024/01/24 09:09:40;;;;;;;11.20;10.80;;;15.40;99.90;;;;;;5019585;28;20428;-40
2024/01/24 09:12:06;;;;;;;11.50;11.00;;;15.50;36.30;;;;;;5002474;28;20939;-40
2024/01/24 09:14:32;;;;;;;10.53;10.13;;;15.90;1.00;;;;;;5006453;28;20746;-41
2024/01/24 09:16:57;;;;;;;11.23;10.73;;;16.20;1.00;;;;;;5003068;28;20218;-39
2024/01/24 09:19:23;;;;;;;11.50;10.80;;;16.30;1.00;;;;;;5017207;28;20226;-39
2024/01/24 09:21:50;;;;;;;10.97;10.50;;;16.40;1.00;;;;;;5012245;28;20194;-40
2024/01/24 09:24:16;;;;;;;10.00;9.60;;;16.10;1.00;;;;;;4998497;28;20225;-57
2024/01/24 09:26:41;;;;;;;10.93;10.53;;;16.00;1.00;;;;;;5010984;28;20504;-55
2024/01/24 09:29:11;;;;;;;10.50;10.00;;;16.00;1.00;;;;;;5020204;28;20657;-57
2024/01/24 09:31:43;;;;;;;10.83;10.43;;;16.30;1.00;;;;;;4993506;28;20268;-50
2024/01/24 09:34:10;;;;;;;10.47;10.07;;;16.60;1.00;;;;;;5017458;28;20430;-58
2024/01/24 09:36:35;;;;;;;10.70;10.30;;;16.70;1.00;;;;;;5017047;28;21086;-55
2024/01/24 09:39:01;;;;;;;10.20;9.80;;;16.50;1.00;;;;;;5020907;28;20425;-57
2024/01/24 09:41:34;;;;;;;10.63;10.20;;;16.60;1.00;;;;;;5009229;28;20410;-54
2024/01/24 09:44:04;;;;;;;10.70;10.20;;;16.20;1.00;;;;;;4986555;28;20187;-56
2024/01/24 09:46:34;;;;;;;11.20;10.70;;;15.40;1.00;;;;;;4985008;28;20773;-58
2024/01/24 09:49:01;;;;;;;10.50;10.10;;;15.20;1.00;;;;;;5008492;28;20409;-58
2024/01/24 09:51:28;;;;;;;10.70;10.30;;;15.00;1.00;;;;;;5017078;28;20457;-55
2024/01/24 09:53:56;;;;;;;11.43;10.80;;;14.70;1.00;;;;;;5018880;28;20422;-41
2024/01/24 09:56:23;;;;;;;11.27;10.50;;;14.80;1.00;;;;;;5006951;28;20713;-40
2024/01/24 09:58:49;;;;;;;10.80;10.30;;;15.30;1.00;;;;;;5018457;28;20433;-39
2024/01/24 10:01:16;;;;;;;11.10;10.60;;;15.90;1.00;;;;;;5013523;28;21046;-39
2024/01/24 10:03:43;;;;;;;11.40;10.90;;;16.40;1.00;;;;;;5020191;28;20182;-40
2024/01/24 10:06:12;;;;;;;11.40;11.00;;;16.40;1.00;;;;;;4994260;28;20848;-38
2024/01/24 10:08:38;;;;;;;10.90;10.47;;;16.30;1.00;;;;;;5020440;28;20421;-38
2024/01/24 10:11:05;;;;;;;10.83;10.23;;;16.00;1.00;;;;;;5016873;28;20910;-41
2024/01/24 10:13:31;;;;;;;11.60;11.10;;;15.70;1.00;;;;;;5008122;28;20590;-39
2024/01/24 10:15:59;;;;;;;11.43;10.93;;;15.40;1.00;;;;;;5004619;28;20437;-51
2024/01/24 10:18:25;;;;;;;11.40;10.90;;;15.40;1.00;;;;;;5020098;28;20424;-55
2024/01/24 10:20:50;;;;;;;11.23;10.73;;;15.60;1.00;;;;;;5018290;28;20765;-56
2024/01/24 10:23:16;;;;;;;10.77;10.37;;;15.70;1.00;;;;;;5008491;28;20186;-40
2024/01/24 10:25:42;;;;;;;10.93;10.47;;;15.30;1.00;;;;;;5009537;28;20265;-39
2024/01/24 10:28:14;;;;;;;10.50;10.00;;;15.20;1.00;;;;;;5002081;28;20818;-38
2024/01/24 10:30:43;;;;;;;11.03;10.53;;;15.50;1.00;;;;;;5014298;28;20200;-39
2024/01/24 10:33:12;;;;;;;10.60;10.20;;;15.70;1.00;;;;;;5010295;28;20479;-40
2024/01/24 10:35:38;;;;;;;11.00;10.60;;;15.60;1.00;;;;;;5016146;28;21332;-40
2024/01/24 10:38:05;;;;;;;10.97;10.47;;;15.20;1.00;;;;;;5012154;28;20455;-41
2024/01/24 10:40:31;;;;;;;10.70;10.20;;;15.10;1.00;;;;;;5015953;28;20426;-41
2024/01/24 10:43:07;;;;;;;11.30;10.80;;;14.80;1.00;;;;;;5010811;28;20417;-39
2024/01/24 10:45:34;;;;;;;10.93;10.43;;;14.50;1.00;;;;;;5014783;28;20433;-39
2024/01/24 10:48:00;;;;;;;10.60;10.20;;;14.40;1.00;;;;;;5012496;28;20417;-38
2024/01/24 10:50:26;;;;;;;11.30;10.70;;;14.20;1.00;;;;;;5019311;28;20423;-40
2024/01/24 10:52:51;;;;;;;14.43;13.63;;;13.90;1.00;;;;;;5016838;28;20529;-41
2024/01/24 10:55:17;;;;;;;13.47;12.47;;;13.30;99.90;;;;;;5015474;28;20548;-42
2024/01/24 10:57:46;;;;;;;14.30;13.60;;;12.80;1.00;;;;;;5012440;28;20487;-39
2024/01/24 11:00:17;;;;;;;15.50;14.33;;;12.30;99.90;;;;;;5010853;28;20677;-39
2024/01/24 11:02:43;;;;;;;14.60;13.50;;;11.70;1.00;;;;;;5008485;28;20461;-39
2024/01/24 11:05:14;;;;;;;14.10;13.30;;;11.30;1.00;;;;;;5019318;28;20963;-39
2024/01/24 11:08:11;;;;;;;14.00;13.20;;;11.00;1.00;;;;;;5000891;28;20187;-43
2024/01/24 11:10:40;;;;;;;13.30;12.43;;;10.70;24.00;;;;;;5014411;28;20965;-39
2024/01/24 11:13:06;;;;;;;13.80;12.90;;;10.60;17.90;;;;;;5011637;28;20911;-56
2024/01/24 11:15:33;;;;;;;15.30;14.00;;;10.50;99.90;;;;;;5018868;28;20640;-55
2024/01/24 11:18:17;;;;;;;13.33;12.57;;;10.50;99.90;;;;;;5008249;28;20417;-56
2024/01/24 11:20:56;;;;;;;13.20;12.40;;;10.40;99.90;;;;;;5018704;28;21192;-56
2024/01/24 11:23:35;;;;;;;13.47;12.57;;;10.40;99.90;;;;;;5010069;28;20772;-53
2024/01/24 11:26:01;;;;;;;13.33;12.37;;;10.70;99.90;;;;;;4997462;28;20452;-56
2024/01/24 11:28:27;;;;;;;12.80;11.80;;;11.30;1.00;;;;;;5010356;28;20421;-39
2024/01/24 11:30:53;;;;;;;11.53;10.67;;;11.90;1.00;;;;;;5018976;28;20429;-39
2024/01/24 11:33:19;;;;;;;12.33;11.50;;;12.20;99.90;;;;;;4993529;28;20642;-39
2024/01/24 11:35:48;;;;;;;13.53;12.53;;;12.40;1.00;;;;;;5018937;28;20210;-39
2024/01/24 11:38:16;;;;;;;14.50;13.30;;;12.10;1.00;;;;;;5008716;28;20179;-39
2024/01/24 11:40:45;;;;;;;13.67;12.57;;;11.70;1.00;;;;;;5010521;28;20445;-38
2024/01/24 11:43:27;;;;;;;13.57;12.77;;;11.40;99.90;;;;;;5006763;28;20442;-38
2024/01/24 11:45:58;;;;;;;14.33;13.47;;;11.20;99.90;;;;;;5011501;28;20425;-40
2024/01/24 11:48:29;;;;;;;15.00;13.70;;;11.10;99.90;;;;;;5009348;28;20458;-38
2024/01/24 11:51:11;;;;;;;14.07;12.93;;;11.00;19.80;;;;;;5016177;28;20423;-39
2024/01/24 11:53:37;;;;;;;12.40;11.50;;;11.00;81.10;;;;;;5014122;28;20433;-38
2024/01/24 11:56:07;;;;;;;12.90;12.20;;;11.10;20.20;;;;;;5018911;28;20794;-39
2024/01/24 11:58:33;;;;;;;12.87;12.03;;;11.40;99.90;;;;;;5013422;28;20195;-47
2024/01/24 12:01:04;;;;;;;12.50;11.80;;;11.60;99.90;;;;;;5011784;28;20414;-52
2024/01/24 12:03:30;;;;;;;12.00;11.33;;;12.20;1.00;;;;;;5017350;28;20420;-54
2024/01/24 12:06:00;;;;;;;12.57;11.53;;;12.80;1.00;;;;;;5022589;28;20474;-54
2024/01/24 12:08:26;;;;;;;11.80;10.90;;;13.50;99.90;;;;;;5018483;28;20511;-56
2024/01/24 12:10:52;;;;;;;12.77;11.87;;;14.10;31.00;;;;;;5022115;28;20413;-57
2024/01/24 12:13:21;;;;;;;12.37;11.37;;;14.50;1.00;;;;;;5015944;28;20213;-57
2024/01/24 12:15:47;;;;;;;11.93;11.30;;;14.70;1.00;;;;;;5022620;28;20411;-51
2024/01/24 12:18:15;;;;;;;13.20;12.30;;;14.50;1.00;;;;;;5017341;28;20441;-53
2024/01/24 12:20:54;;;;;;;11.17;10.37;;;14.30;1.00;;;;;;5021941;28;20467;-56
2024/01/24 12:23:20;;;;;;;11.63;10.90;;;14.10;1.00;;;;;;5005969;28;20509;-49
2024/01/24 12:25:47;;;;;;;12.57;11.67;;;14.10;1.00;;;;;;5016468;28;20421;-56
2024/01/24 12:28:13;;;;;;;12.10;11.40;;;14.00;1.00;;;;;;5018617;28;20436;-53
2024/01/24 12:30:46;;;;;;;11.67;11.00;;;13.60;1.00;;;;;;5017577;28;20789;-53
2024/01/24 12:33:14;;;;;;;12.30;11.60;;;13.40;1.00;;;;;;5013090;28;20951;-53